Time;durP1;ratioP1;P1;durP2;ratioP2;P2;SDS_P1;SDS_P2;PMS_P1;PMS_P2;Temp;Humidity;BMP_temperature;BMP_pressure;BME280_temperature;BME280_humidity;BME280_pressure;Samples;Min_cycle;Max_cycle;Signal;HPM_P1;HPM_P2
2023/10/10 00:02:18;;;;;;;9.10;4.72;;;15.50;99.90;;;;;;5077442;28;20373;-77
2023/10/10 00:04:47;;;;;;;7.97;4.35;;;15.40;99.90;;;;;;5074177;28;20126;-77
2023/10/10 00:07:14;;;;;;;9.43;4.50;;;15.50;99.90;;;;;;5057177;28;20485;-77
2023/10/10 00:09:44;;;;;;;9.05;4.45;;;15.50;99.90;;;;;;5056935;28;20041;-77
2023/10/10 00:12:13;;;;;;;8.95;4.40;;;15.40;99.90;;;;;;5055719;28;20041;-77
2023/10/10 00:14:39;;;;;;;10.02;4.05;;;15.40;99.90;;;;;;5070409;28;20041;-77
2023/10/10 00:17:08;;;;;;;10.25;3.80;;;15.50;99.90;;;;;;5053500;28;20032;-77
2023/10/10 00:19:42;;;;;;;10.48;4.63;;;15.50;99.90;;;;;;5036846;28;20506;-77
2023/10/10 00:22:08;;;;;;;8.65;4.20;;;15.50;99.90;;;;;;5053479;28;20033;-77
2023/10/10 00:24:35;;;;;;;8.27;4.22;;;15.50;99.90;;;;;;5053638;28;20045;-77
2023/10/10 00:27:14;;;;;;;9.77;4.35;;;15.60;99.90;;;;;;5036759;28;20072;-77
2023/10/10 00:29:42;;;;;;;9.02;4.20;;;15.60;99.90;;;;;;5056945;28;20126;-77
2023/10/10 00:32:17;;;;;;;9.00;4.45;;;15.60;99.90;;;;;;5069264;28;20044;-77
2023/10/10 00:34:47;;;;;;;10.25;4.60;;;15.60;99.90;;;;;;5056737;28;20044;-77
2023/10/10 00:37:21;;;;;;;11.13;4.55;;;15.60;99.90;;;;;;5070911;28;20032;-77
2023/10/10 00:40:00;;;;;;;9.05;4.65;;;15.60;99.90;;;;;;5072613;28;20040;-77
2023/10/10 00:42:41;;;;;;;8.70;4.30;;;15.60;99.90;;;;;;5073061;28;20036;-77
2023/10/10 00:45:14;;;;;;;12.05;4.70;;;15.60;99.90;;;;;;5071983;28;20048;-77
2023/10/10 00:47:44;;;;;;;9.65;5.07;;;15.60;99.90;;;;;;5084021;28;20039;-77
2023/10/10 00:50:16;;;;;;;9.77;4.00;;;15.60;99.90;;;;;;5076557;28;20093;-77
2023/10/10 00:52:44;;;;;;;8.75;4.10;;;15.60;99.90;;;;;;5076115;28;20127;-77
2023/10/10 00:55:10;;;;;;;10.70;4.70;;;15.50;99.90;;;;;;5059662;28;20053;-77
2023/10/10 00:57:37;;;;;;;10.07;4.32;;;15.60;99.90;;;;;;5072678;28;20052;-77
2023/10/10 01:00:14;;;;;;;12.73;4.15;;;15.60;99.90;;;;;;5072604;28;20090;-77
2023/10/10 01:02:42;;;;;;;11.07;4.00;;;15.60;99.90;;;;;;5055989;28;20040;-77
2023/10/10 01:05:12;;;;;;;9.82;4.38;;;15.60;99.90;;;;;;5075104;28;20492;-77
2023/10/10 01:07:39;;;;;;;8.45;4.47;;;15.60;99.90;;;;;;5072752;28;20044;-77
2023/10/10 01:10:11;;;;;;;7.82;3.90;;;15.60;99.90;;;;;;5055849;28;20128;-77
2023/10/10 01:12:42;;;;;;;8.48;4.18;;;15.60;99.90;;;;;;5055667;28;20389;-77
2023/10/10 01:15:16;;;;;;;10.23;4.60;;;15.60;99.90;;;;;;5047649;28;20025;-77
2023/10/10 01:17:43;;;;;;;9.15;4.50;;;15.60;99.90;;;;;;5048679;28;20040;-77
2023/10/10 01:20:33;;;;;;;10.40;4.28;;;15.70;99.90;;;;;;5072311;28;20048;-77
2023/10/10 01:23:00;;;;;;;8.52;4.22;;;15.70;99.90;;;;;;5075906;28;20040;-77
2023/10/10 01:28:05;;;;;;;7.43;3.85;;;15.70;99.90;;;;;;5072548;28;20040;-77
2023/10/10 01:30:43;;;;;;;9.23;3.85;;;15.70;99.90;;;;;;5055361;28;20033;-77
2023/10/10 01:33:22;;;;;;;8.43;3.67;;;15.70;99.90;;;;;;5052211;28;20037;-78
2023/10/10 01:35:49;;;;;;;9.82;3.60;;;15.70;99.90;;;;;;5058172;28;20071;-78
2023/10/10 01:38:55;;;;;;;6.82;3.70;;;15.70;99.90;;;;;;5063175;28;20043;-78
2023/10/10 01:41:31;;;;;;;8.65;4.10;;;15.70;99.90;;;;;;5063001;28;20052;-77
2023/10/10 01:44:08;;;;;;;9.25;3.78;;;15.70;99.90;;;;;;5075697;28;20082;-77
2023/10/10 01:46:35;;;;;;;8.32;3.80;;;15.70;99.90;;;;;;5080201;28;20036;-77
2023/10/10 01:49:02;;;;;;;8.52;3.80;;;15.70;99.90;;;;;;5055244;28;20515;-77
2023/10/10 01:51:33;;;;;;;8.52;3.75;;;15.70;99.90;;;;;;5055100;28;20051;-77
2023/10/10 01:54:12;;;;;;;9.65;4.13;;;15.80;99.90;;;;;;5072204;28;20048;-77
2023/10/10 01:56:38;;;;;;;11.65;4.93;;;15.80;99.90;;;;;;5081317;28;20064;-77
2023/10/10 01:59:04;;;;;;;11.32;4.18;;;15.70;99.90;;;;;;5071829;28;20500;-77
2023/10/10 02:01:31;;;;;;;7.97;4.35;;;15.70;99.90;;;;;;5055052;28;20075;-77
2023/10/10 02:03:58;;;;;;;9.73;4.65;;;15.70;99.90;;;;;;5071809;28;20051;-77
2023/10/10 02:06:28;;;;;;;10.93;4.60;;;15.70;99.90;;;;;;5073424;28;20040;-77
2023/10/10 02:09:10;;;;;;;9.48;4.40;;;15.70;99.90;;;;;;5059182;28;20119;-77
2023/10/10 02:11:38;;;;;;;9.07;4.35;;;15.70;99.90;;;;;;5061392;28;20151;-77
2023/10/10 02:14:11;;;;;;;9.30;3.95;;;15.70;99.90;;;;;;5079177;28;20032;-77
2023/10/10 02:16:40;;;;;;;10.02;4.97;;;15.70;99.90;;;;;;5091059;28;20438;-77
2023/10/10 02:19:15;;;;;;;9.82;4.70;;;15.70;99.90;;;;;;5067397;28;20142;-78
2023/10/10 02:21:48;;;;;;;10.02;4.70;;;15.70;99.90;;;;;;5075702;28;20052;-77
2023/10/10 02:26:54;;;;;;;9.07;4.25;;;15.70;99.90;;;;;;5074383;28;20051;-77
2023/10/10 02:32:11;;;;;;;9.55;4.32;;;15.70;99.90;;;;;;5084595;28;20131;-77
2023/10/10 02:34:43;;;;;;;8.23;4.03;;;15.60;99.90;;;;;;5075500;28;20045;-77
2023/10/10 02:37:41;;;;;;;8.35;4.32;;;15.70;99.90;;;;;;5074520;28;20078;-77
2023/10/10 02:40:15;;;;;;;8.60;4.57;;;15.60;99.90;;;;;;5075195;28;20501;-77
2023/10/10 02:45:28;;;;;;;9.68;4.75;;;15.70;99.90;;;;;;5076417;28;20040;-77
2023/10/10 02:47:54;;;;;;;7.78;4.25;;;15.70;99.90;;;;;;5072737;28;20040;-77
2023/10/10 02:53:08;;;;;;;9.15;4.70;;;15.70;99.90;;;;;;5075290;28;20483;-78
2023/10/10 02:55:35;;;;;;;8.55;4.30;;;15.70;99.90;;;;;;5074824;28;20135;-77
2023/10/10 02:58:01;;;;;;;8.07;4.10;;;15.70;99.90;;;;;;5056852;28;20048;-77
2023/10/10 03:02:58;;;;;;;8.85;4.22;;;15.60;99.90;;;;;;5079399;28;20052;-77
2023/10/10 03:05:40;;;;;;;9.40;4.13;;;15.70;99.90;;;;;;5095469;28;20055;-77
2023/10/10 03:08:26;;;;;;;10.02;4.35;;;15.70;99.90;;;;;;5093859;28;20047;-77
2023/10/10 03:11:00;;;;;;;9.57;3.80;;;15.70;99.90;;;;;;5071609;28;20048;-77
2023/10/10 03:13:35;;;;;;;10.70;4.32;;;15.70;99.90;;;;;;5054802;28;20120;-77
2023/10/10 03:30:15;;;;;;;11.20;4.10;;;15.70;99.90;;;;;;5073669;28;20105;-77
2023/10/10 03:34:56;;;;;;;8.07;4.00;;;15.70;99.90;;;;;;5074280;28;20131;-77
2023/10/10 03:40:09;;;;;;;8.63;4.07;;;15.70;99.90;;;;;;5086875;28;20036;-77
2023/10/10 05:23:47;;;;;;;11.68;7.50;;;15.70;99.90;;;;;;5073722;28;20048;-77
2023/10/10 05:26:19;;;;;;;14.13;7.75;;;15.60;99.90;;;;;;5072447;28;20173;-77
2023/10/10 05:28:45;;;;;;;12.77;8.30;;;15.60;99.90;;;;;;5066462;28;20070;-77
2023/10/10 05:31:11;;;;;;;15.25;7.60;;;15.60;99.90;;;;;;5072100;28;20041;-77
2023/10/10 05:33:37;;;;;;;14.27;8.63;;;15.60;99.90;;;;;;5086693;28;20035;-77
2023/10/10 05:36:06;;;;;;;14.95;8.98;;;15.60;99.90;;;;;;5070960;28;20618;-77
2023/10/10 05:38:36;;;;;;;15.23;9.73;;;15.60;99.90;;;;;;5052366;28;20542;-77
2023/10/10 05:41:03;;;;;;;14.23;8.68;;;15.50;99.90;;;;;;5071665;28;20044;-77
2023/10/10 05:43:33;;;;;;;13.93;9.20;;;15.60;99.90;;;;;;5070915;28;20174;-77
2023/10/10 05:46:00;;;;;;;14.05;10.07;;;15.50;99.90;;;;;;5046426;28;20041;-77
2023/10/10 05:48:31;;;;;;;14.80;10.38;;;15.50;99.90;;;;;;5060586;28;20048;-77
2023/10/10 05:50:57;;;;;;;14.15;9.80;;;15.60;99.90;;;;;;5052505;28;20041;-77
2023/10/10 05:53:24;;;;;;;16.33;10.23;;;15.50;99.90;;;;;;5055221;28;20033;-77
2023/10/10 05:55:54;;;;;;;17.00;11.73;;;15.50;99.90;;;;;;5053462;28;20044;-77
2023/10/10 05:58:20;;;;;;;16.50;10.43;;;15.50;99.90;;;;;;5054823;28;20090;-77
2023/10/10 06:00:48;;;;;;;17.27;10.70;;;15.50;99.90;;;;;;5068662;28;20043;-77
2023/10/10 06:03:16;;;;;;;18.58;11.88;;;15.40;99.90;;;;;;5054523;28;20556;-77
2023/10/10 06:05:45;;;;;;;14.73;10.70;;;15.40;99.90;;;;;;5069459;28;20398;-77
2023/10/10 06:08:12;;;;;;;14.93;10.43;;;15.40;99.90;;;;;;5071011;28;20028;-77
2023/10/10 06:10:38;;;;;;;15.02;10.70;;;15.40;99.90;;;;;;5070987;28;20055;-77
2023/10/10 06:13:06;;;;;;;18.48;12.07;;;15.40;99.90;;;;;;5071231;28;20036;-78
2023/10/10 06:15:35;;;;;;;19.63;12.70;;;15.50;99.90;;;;;;5070677;28;20039;-85
2023/10/10 06:18:11;;;;;;;19.85;13.18;;;15.40;99.90;;;;;;5070852;28;20123;-83
2023/10/10 06:20:41;;;;;;;20.20;13.07;;;15.40;99.90;;;;;;5069787;28;20033;-86
2023/10/10 06:23:08;;;;;;;20.73;13.10;;;15.40;99.90;;;;;;5071078;28;20394;-86
2023/10/10 06:25:35;;;;;;;18.00;12.73;;;15.50;99.90;;;;;;5053106;28;20037;-82
2023/10/10 06:28:05;;;;;;;19.60;13.15;;;15.50;99.90;;;;;;5071939;28;20063;-78
2023/10/10 06:30:37;;;;;;;22.90;11.93;;;15.50;99.90;;;;;;5069904;28;20045;-79
2023/10/10 06:33:10;;;;;;;19.00;12.15;;;15.50;99.90;;;;;;5051132;28;20036;-86
2023/10/10 06:35:38;;;;;;;22.30;13.00;;;15.40;99.90;;;;;;5054820;28;20036;-80
2023/10/10 06:38:12;;;;;;;18.25;12.40;;;15.50;99.90;;;;;;5069649;28;20039;-77
2023/10/10 06:40:44;;;;;;;19.40;12.32;;;15.50;99.90;;;;;;5058598;28;20032;-81
2023/10/10 06:43:10;;;;;;;17.55;13.00;;;15.60;99.90;;;;;;5051365;28;20477;-82
2023/10/10 06:45:36;;;;;;;18.83;13.48;;;15.60;99.90;;;;;;5055704;28;20043;-76
2023/10/10 06:48:02;;;;;;;17.67;13.02;;;15.60;99.90;;;;;;5069458;28;20036;-77
2023/10/10 06:50:31;;;;;;;18.33;12.65;;;15.60;99.90;;;;;;5070608;28;20039;-77
2023/10/10 06:52:58;;;;;;;18.25;12.95;;;15.60;99.90;;;;;;5071736;28;20052;-77
2023/10/10 06:55:24;;;;;;;21.08;13.13;;;15.50;99.90;;;;;;5057766;28;20052;-77
2023/10/10 06:57:59;;;;;;;18.17;11.10;;;15.60;99.90;;;;;;5044622;28;20040;-77
2023/10/10 07:02:59;;;;;;;18.88;13.82;;;15.70;99.90;;;;;;5090772;28;20053;-77
2023/10/10 07:05:33;;;;;;;19.10;13.77;;;15.70;99.90;;;;;;5074609;28;20045;-77
2023/10/10 07:07:58;;;;;;;18.38;12.63;;;15.70;99.90;;;;;;5055952;28;20067;-77
2023/10/10 07:10:35;;;;;;;16.60;13.05;;;15.70;99.90;;;;;;5062620;28;20137;-77
2023/10/10 07:13:01;;;;;;;18.98;12.93;;;15.70;99.90;;;;;;5071781;28;20037;-77
2023/10/10 07:15:34;;;;;;;17.45;13.20;;;15.70;99.90;;;;;;5056974;28;20602;-77
2023/10/10 07:18:14;;;;;;;18.00;12.75;;;15.70;99.90;;;;;;5074122;28;20039;-77
2023/10/10 07:23:37;;;;;;;20.65;13.45;;;15.80;99.90;;;;;;5071196;28;20045;-77
2023/10/10 07:26:08;;;;;;;21.45;14.20;;;15.80;99.90;;;;;;5053367;28;20468;-77
2023/10/10 07:28:47;;;;;;;20.10;14.30;;;15.80;99.90;;;;;;5072561;28;20063;-77
2023/10/10 07:31:22;;;;;;;24.50;13.90;;;15.90;99.90;;;;;;5047653;28;20517;-77
2023/10/10 07:33:55;;;;;;;23.65;15.43;;;15.90;99.90;;;;;;5073843;28;20033;-77
2023/10/10 07:36:26;;;;;;;24.10;15.10;;;16.00;99.90;;;;;;5071282;28;20040;-77
2023/10/10 07:39:31;;;;;;;22.98;15.07;;;16.00;99.90;;;;;;5083214;28;20130;-77
2023/10/10 07:41:44;;;;;;;25.48;16.70;;;16.00;99.90;;;;;;5073889;28;20049;-77
2023/10/10 07:44:11;;;;;;;28.90;18.17;;;16.10;99.90;;;;;;5056788;28;20500;-77
2023/10/10 07:46:36;;;;;;;26.98;17.63;;;16.10;99.90;;;;;;5072950;28;20040;-77
2023/10/10 07:49:03;;;;;;;28.20;19.38;;;16.10;99.90;;;;;;5056577;28;20089;-77
2023/10/10 07:51:29;;;;;;;27.02;18.80;;;16.10;99.90;;;;;;5074126;28;20052;-77
2023/10/10 07:54:12;;;;;;;30.38;19.33;;;16.20;99.90;;;;;;5056911;28;20129;-75
2023/10/10 07:56:45;;;;;;;29.38;20.00;;;16.10;99.90;;;;;;5081607;28;20064;-75
2023/10/10 07:59:14;;;;;;;30.48;20.25;;;16.20;99.90;;;;;;5053340;28;20044;-78
2023/10/10 08:01:44;;;;;;;30.15;21.48;;;16.20;99.90;;;;;;5053175;28;20068;-78
2023/10/10 08:04:14;;;;;;;27.63;20.48;;;16.20;99.90;;;;;;5072945;28;20045;-78
2023/10/10 08:06:44;;;;;;;31.10;21.67;;;16.30;99.90;;;;;;5069263;28;20044;-78
2023/10/10 08:11:37;;;;;;;28.70;21.02;;;16.40;99.90;;;;;;5073038;28;20045;-77
2023/10/10 08:14:07;;;;;;;29.40;21.02;;;16.50;99.90;;;;;;5056645;28;20488;-77
2023/10/10 08:16:34;;;;;;;30.63;22.20;;;16.60;99.90;;;;;;5072257;28;20510;-77
2023/10/10 08:19:10;;;;;;;31.33;21.70;;;16.60;99.90;;;;;;5073369;28;20515;-77
2023/10/10 08:21:38;;;;;;;38.25;26.63;;;16.70;99.90;;;;;;5055949;28;20556;-77
2023/10/10 08:24:04;;;;;;;37.00;24.95;;;16.70;99.90;;;;;;5056007;28;20047;-77
2023/10/10 08:26:38;;;;;;;39.30;28.23;;;16.70;99.90;;;;;;5066147;28;20040;-77
2023/10/10 08:29:06;;;;;;;40.83;25.73;;;16.80;99.90;;;;;;5060623;28;20036;-78
2023/10/10 08:31:33;;;;;;;39.90;27.65;;;16.90;99.90;;;;;;5072385;28;20052;-78
2023/10/10 08:33:58;;;;;;;39.90;27.10;;;16.90;99.90;;;;;;5057519;28;20412;-78
2023/10/10 08:36:24;;;;;;;36.20;25.75;;;16.90;99.90;;;;;;5056454;28;20032;-78
2023/10/10 08:38:54;;;;;;;42.63;28.85;;;16.90;99.90;;;;;;5054390;28;20527;-77
2023/10/10 08:41:28;;;;;;;38.35;27.52;;;17.00;99.90;;;;;;5059644;28;20037;-79
2023/10/10 08:44:06;;;;;;;43.42;29.50;;;17.10;99.90;;;;;;5072213;28;20032;-78
2023/10/10 08:46:40;;;;;;;42.75;27.27;;;17.10;99.90;;;;;;5054838;28;20036;-78
2023/10/10 08:49:06;;;;;;;43.15;29.90;;;17.10;99.90;;;;;;5073016;28;20091;-78
2023/10/10 08:51:34;;;;;;;43.67;29.23;;;17.10;99.90;;;;;;5072728;28;20037;-78
2023/10/10 08:54:11;;;;;;;40.35;28.35;;;17.20;99.90;;;;;;5071171;28;20040;-78
2023/10/10 08:56:38;;;;;;;44.83;29.48;;;17.10;99.90;;;;;;5072629;28;20040;-78
2023/10/10 08:59:08;;;;;;;43.00;28.38;;;17.20;99.90;;;;;;5056010;28;20041;-78
2023/10/10 09:01:35;;;;;;;41.42;27.70;;;17.20;99.90;;;;;;5055974;28;20572;-78
2023/10/10 09:04:05;;;;;;;45.92;27.75;;;17.20;99.90;;;;;;5071572;28;20055;-78
2023/10/10 09:06:45;;;;;;;44.70;29.35;;;17.20;99.90;;;;;;5052932;28;20412;-78
2023/10/10 09:11:56;;;;;;;43.70;28.75;;;17.20;99.90;;;;;;5052351;28;20098;-78
2023/10/10 09:14:37;;;;;;;42.85;28.67;;;17.30;99.90;;;;;;5052029;28;20036;-78
2023/10/10 09:17:06;;;;;;;40.72;29.95;;;17.30;99.90;;;;;;5072248;28;20040;-78
2023/10/10 09:19:32;;;;;;;48.95;32.10;;;17.30;99.90;;;;;;5055938;28;20130;-78
2023/10/10 09:22:01;;;;;;;45.88;30.83;;;17.30;99.90;;;;;;5055804;28;20401;-78
2023/10/10 09:24:28;;;;;;;44.53;30.85;;;17.30;99.90;;;;;;5072276;28;20040;-78
2023/10/10 09:27:10;;;;;;;42.92;29.90;;;17.30;99.90;;;;;;5054523;28;20617;-78
2023/10/10 09:29:47;;;;;;;;;;;17.40;99.90;;;;;;5055916;28;20119;-78
2023/10/10 09:32:15;;;;;;;45.92;29.42;;;17.50;99.90;;;;;;5055348;28;20395;-78
2023/10/10 09:34:40;;;;;;;44.67;30.73;;;17.50;99.90;;;;;;5055411;28;20512;-77
2023/10/10 09:37:10;;;;;;;50.58;30.70;;;17.50;99.90;;;;;;5070366;28;20068;-78
2023/10/10 09:39:36;;;;;;;46.95;30.65;;;17.50;99.90;;;;;;5072098;28;20509;-78
2023/10/10 09:42:07;;;;;;;46.42;29.48;;;17.60;99.90;;;;;;5071911;28;20492;-78
2023/10/10 09:52:58;;;;;;;45.42;29.63;;;17.60;99.90;;;;;;5071865;28;20501;-78
2023/10/10 10:09:36;;;;;;;46.00;27.77;;;17.90;99.90;;;;;;5051763;28;20049;-78
2023/10/10 10:12:30;;;;;;;41.83;28.30;;;18.00;99.90;;;;;;5051530;28;20044;-78
2023/10/10 10:15:06;;;;;;;41.97;28.63;;;18.00;99.90;;;;;;5054385;28;20040;-78
2023/10/10 10:17:56;;;;;;;41.70;27.02;;;18.00;99.90;;;;;;5043523;28;20055;-78
2023/10/10 10:20:46;;;;;;;44.53;28.40;;;18.10;99.90;;;;;;5071664;28;20098;-78
2023/10/10 10:23:46;;;;;;;44.08;29.67;;;18.10;99.90;;;;;;5071672;28;20076;-78
2023/10/10 10:26:22;;;;;;;39.78;25.58;;;18.10;99.90;;;;;;5072163;28;20047;-78
2023/10/10 10:28:57;;;;;;;42.38;27.50;;;18.10;99.90;;;;;;5057981;28;20484;-78
2023/10/10 10:31:37;;;;;;;39.30;24.42;;;18.20;99.90;;;;;;5058752;28;20123;-78
2023/10/10 10:34:23;;;;;;;38.58;25.52;;;18.30;99.90;;;;;;5059136;28;20393;-78
2023/10/10 10:37:13;;;;;;;41.50;25.08;;;18.40;99.90;;;;;;5075456;28;20512;-78
2023/10/10 10:40:09;;;;;;;37.72;25.63;;;18.50;99.90;;;;;;5064529;28;20041;-78
2023/10/10 10:42:27;;;;;;;36.25;24.08;;;18.50;99.90;;;;;;5055205;28;20049;-78
2023/10/10 10:44:58;;;;;;;33.83;23.63;;;18.50;99.90;;;;;;5055275;28;20401;-78
2023/10/10 10:47:34;;;;;;;33.45;23.67;;;18.60;99.90;;;;;;5042224;28;20516;-78
2023/10/10 10:50:04;;;;;;;38.33;22.88;;;18.70;99.90;;;;;;5058762;28;20060;-78
2023/10/10 10:52:48;;;;;;;37.47;23.48;;;18.70;99.90;;;;;;5074971;28;20051;-78
2023/10/10 10:55:27;;;;;;;36.13;22.23;;;18.80;99.90;;;;;;5058486;28;20040;-78
2023/10/10 11:03:25;;;;;;;36.75;21.92;;;18.90;99.90;;;;;;5075055;28;20036;-78
2023/10/10 11:05:54;;;;;;;33.20;20.60;;;18.90;99.90;;;;;;5058703;28;20123;-78
2023/10/10 11:08:50;;;;;;;32.55;21.25;;;18.90;99.90;;;;;;5073897;28;20051;-78
2023/10/10 11:11:28;;;;;;;32.13;21.60;;;18.90;99.90;;;;;;5074843;28;20080;-78
2023/10/10 11:14:00;;;;;;;34.92;22.15;;;18.90;99.90;;;;;;5075017;28;20079;-78
2023/10/10 11:16:39;;;;;;;;;;;18.80;99.90;;;;;;5075154;28;20037;-78
2023/10/10 11:19:24;;;;;;;34.95;20.60;;;18.80;99.90;;;;;;5056748;28;19916;-78
2023/10/10 11:21:54;;;;;;;29.15;20.70;;;18.80;99.90;;;;;;5074870;28;20048;-78
2023/10/10 11:24:31;;;;;;;28.75;20.70;;;18.70;99.90;;;;;;5075835;28;20044;-78
2023/10/10 11:29:48;;;;;;;30.98;21.10;;;18.80;99.90;;;;;;5074714;28;20040;-78
2023/10/10 11:32:24;;;;;;;34.22;22.42;;;18.80;99.90;;;;;;5057625;28;20512;-78
2023/10/10 11:34:55;;;;;;;33.85;23.13;;;18.90;99.90;;;;;;5057954;28;20043;-78
2023/10/10 11:37:32;;;;;;;33.17;21.40;;;19.00;99.90;;;;;;5057732;28;20518;-78
2023/10/10 11:40:30;;;;;;;34.72;22.13;;;19.10;99.90;;;;;;5072973;28;20049;-78
2023/10/10 11:43:04;;;;;;;32.08;20.13;;;19.10;99.90;;;;;;5057145;28;20044;-78
2023/10/10 11:45:50;;;;;;;33.17;22.33;;;19.10;99.90;;;;;;5074453;28;20450;-78
2023/10/10 11:48:15;;;;;;;30.17;19.92;;;19.10;99.90;;;;;;5057789;28;20072;-78
2023/10/10 11:50:49;;;;;;;30.02;19.38;;;19.10;99.90;;;;;;5072850;28;20060;-78
2023/10/10 11:53:19;;;;;;;31.85;21.48;;;19.10;99.90;;;;;;5074196;28;20045;-78
2023/10/10 11:55:46;;;;;;;32.67;21.57;;;19.20;99.90;;;;;;5073859;28;20132;-78
2023/10/10 11:58:18;;;;;;;33.28;19.67;;;19.20;99.90;;;;;;5057295;28;20044;-78
2023/10/10 12:01:03;;;;;;;;;;;19.20;99.90;;;;;;5056636;28;20075;-78
2023/10/10 12:06:26;;;;;;;30.70;19.42;;;19.10;99.90;;;;;;5074008;28;20048;-78
2023/10/10 12:08:53;;;;;;;30.77;20.77;;;19.10;99.90;;;;;;5057471;28;20439;-78
2023/10/10 12:11:22;;;;;;;28.77;19.60;;;19.20;99.90;;;;;;5055922;28;20496;-78
2023/10/10 12:13:52;;;;;;;26.70;18.85;;;19.10;99.90;;;;;;5073630;28;20489;-78
2023/10/10 12:16:23;;;;;;;27.50;18.02;;;19.20;99.90;;;;;;5073531;28;20036;-78
2023/10/10 12:18:55;;;;;;;27.97;19.13;;;19.20;99.90;;;;;;5073671;28;20052;-78
2023/10/10 12:21:21;;;;;;;;;;;19.30;99.90;;;;;;5056816;28;20647;-78
2023/10/10 12:23:55;;;;;;;30.50;18.75;;;19.30;99.90;;;;;;5072778;28;19920;-78
2023/10/10 12:26:22;;;;;;;28.20;18.77;;;19.30;99.90;;;;;;5056922;28;20044;-78
2023/10/10 12:28:48;;;;;;;28.83;17.58;;;19.30;99.90;;;;;;5056690;28;20075;-78
2023/10/10 12:31:17;;;;;;;24.48;18.15;;;19.40;99.90;;;;;;5055886;28;20078;-78
2023/10/10 12:33:45;;;;;;;24.90;17.92;;;19.40;99.90;;;;;;5073183;28;20075;-78
2023/10/10 12:36:11;;;;;;;25.27;17.40;;;19.50;99.90;;;;;;5056550;28;20036;-78
2023/10/10 12:38:40;;;;;;;24.02;17.42;;;19.50;99.90;;;;;;5073417;28;20393;-78
2023/10/10 12:41:06;;;;;;;29.02;18.15;;;19.60;99.90;;;;;;5055345;28;20036;-78
2023/10/10 12:43:32;;;;;;;24.77;17.35;;;19.70;99.90;;;;;;5072830;28;20059;-78
2023/10/10 12:46:00;;;;;;;27.30;16.27;;;19.70;99.90;;;;;;5056675;28;20036;-78
2023/10/10 12:48:26;;;;;;;28.05;17.58;;;19.70;99.90;;;;;;5056352;28;20039;-78
2023/10/10 12:50:52;;;;;;;26.75;17.67;;;19.80;99.90;;;;;;5055188;28;20032;-78
2023/10/10 12:53:19;;;;;;;24.85;16.85;;;19.80;99.90;;;;;;5039244;28;20029;-78
2023/10/10 12:56:00;;;;;;;22.55;16.38;;;19.80;99.90;;;;;;5052923;28;20486;-79
2023/10/10 12:58:27;;;;;;;23.20;16.60;;;19.80;99.90;;;;;;5036229;28;20481;-78
2023/10/10 13:00:53;;;;;;;23.50;15.82;;;19.70;99.90;;;;;;5036448;28;20433;-78
2023/10/10 13:03:22;;;;;;;27.23;15.27;;;19.80;99.90;;;;;;5049137;28;20090;-78
2023/10/10 13:05:52;;;;;;;21.05;14.93;;;19.70;99.90;;;;;;5056020;28;20046;-78
2023/10/10 13:08:24;;;;;;;24.52;15.00;;;19.70;99.90;;;;;;5056190;28;20037;-78
2023/10/10 13:11:00;;;;;;;21.35;13.48;;;19.60;99.90;;;;;;5056211;28;20028;-78
2023/10/10 13:13:31;;;;;;;24.48;15.25;;;19.60;99.90;;;;;;5055415;28;20036;-79
2023/10/10 13:16:21;;;;;;;21.00;14.40;;;19.50;99.90;;;;;;5055884;28;20504;-78
2023/10/10 13:18:48;;;;;;;21.33;12.85;;;19.50;99.90;;;;;;5055846;28;20033;-79
2023/10/10 13:21:15;;;;;;;22.75;15.02;;;19.50;99.90;;;;;;5072396;28;20074;-78
2023/10/10 13:23:43;;;;;;;22.95;14.68;;;19.50;99.90;;;;;;5069785;28;20036;-78
2023/10/10 13:26:09;;;;;;;23.90;15.45;;;19.60;99.90;;;;;;5054259;28;20036;-78
2023/10/10 13:28:36;;;;;;;19.08;12.63;;;19.50;99.90;;;;;;5072233;28;20040;-79
2023/10/10 13:31:02;;;;;;;21.45;14.15;;;19.50;99.90;;;;;;5055780;28;20392;-79
2023/10/10 13:33:28;;;;;;;21.15;14.57;;;19.50;99.90;;;;;;5054207;28;20116;-79
2023/10/10 13:35:54;;;;;;;25.67;15.02;;;19.50;99.90;;;;;;5054529;28;20044;-79
2023/10/10 13:38:19;;;;;;;24.75;16.60;;;19.40;99.90;;;;;;5055758;28;20103;-78
2023/10/10 13:40:46;;;;;;;24.13;15.40;;;19.50;99.90;;;;;;5055677;28;20032;-79
2023/10/10 13:43:18;;;;;;;22.25;14.77;;;19.50;99.90;;;;;;5071267;28;20458;-78
2023/10/10 13:45:45;;;;;;;23.05;15.18;;;19.50;99.90;;;;;;5054542;28;20066;-78
2023/10/10 13:48:13;;;;;;;24.80;15.23;;;19.60;99.90;;;;;;5072058;28;20037;-79
2023/10/10 13:50:44;;;;;;;23.17;15.68;;;19.50;99.90;;;;;;5055511;28;20400;-79
2023/10/10 13:53:14;;;;;;;23.20;14.40;;;19.50;99.90;;;;;;5055128;28;20087;-79
2023/10/10 13:55:45;;;;;;;24.95;16.10;;;19.50;99.90;;;;;;5070735;28;20509;-79
2023/10/10 13:58:13;;;;;;;25.02;16.98;;;19.50;99.90;;;;;;5055187;28;20032;-78
2023/10/10 14:00:41;;;;;;;22.02;15.70;;;19.60;99.90;;;;;;5054935;28;20047;-79
2023/10/10 14:03:08;;;;;;;25.92;17.35;;;19.50;99.90;;;;;;5055225;28;20389;-78
2023/10/10 14:05:36;;;;;;;25.65;16.20;;;19.60;99.90;;;;;;5054311;28;20045;-79
2023/10/10 14:08:03;;;;;;;26.23;17.80;;;19.60;99.90;;;;;;5055426;28;20461;-79
2023/10/10 14:10:39;;;;;;;25.65;18.13;;;19.60;99.90;;;;;;5071817;28;20059;-79
2023/10/10 14:13:23;;;;;;;22.48;16.83;;;19.60;99.90;;;;;;5054925;28;20370;-78
2023/10/10 14:16:01;;;;;;;27.38;18.58;;;19.60;99.90;;;;;;5054246;28;20040;-79
2023/10/10 14:18:43;;;;;;;27.90;16.27;;;19.60;99.90;;;;;;5055336;28;20397;-79
2023/10/10 14:21:10;;;;;;;24.42;16.65;;;19.60;99.90;;;;;;5072025;28;20044;-79
2023/10/10 14:23:38;;;;;;;25.88;15.43;;;19.60;99.90;;;;;;5071821;28;20494;-78
2023/10/10 14:26:16;;;;;;;24.60;17.23;;;19.50;99.90;;;;;;5053407;28;20032;-79
2023/10/10 14:28:53;;;;;;;26.20;17.15;;;19.60;99.90;;;;;;5069549;28;20040;-79
2023/10/10 14:31:21;;;;;;;23.23;16.50;;;19.60;99.90;;;;;;5055127;28;20048;-79
2023/10/10 14:33:48;;;;;;;24.20;16.98;;;19.60;99.90;;;;;;5054757;28;20536;-79
2023/10/10 14:36:14;;;;;;;24.75;16.77;;;19.60;99.90;;;;;;5070621;28;20037;-79
2023/10/10 14:38:46;;;;;;;23.92;15.85;;;19.50;99.90;;;;;;5055154;28;20415;-79
2023/10/10 14:41:30;;;;;;;23.67;16.40;;;19.50;99.90;;;;;;5055108;28;20128;-79
2023/10/10 14:44:00;;;;;;;24.42;16.58;;;19.50;99.90;;;;;;5054799;28;20040;-79
2023/10/10 14:46:31;;;;;;;22.98;15.98;;;19.50;99.90;;;;;;5053641;28;20051;-79
2023/10/10 14:49:06;;;;;;;22.75;15.50;;;19.40;99.90;;;;;;5071430;28;20040;-79
2023/10/10 14:51:34;;;;;;;21.60;16.20;;;19.40;99.90;;;;;;5054616;28;20501;-79
2023/10/10 14:54:09;;;;;;;24.02;16.55;;;19.30;99.90;;;;;;5054548;28;20519;-79
2023/10/10 14:56:36;;;;;;;22.52;15.77;;;19.30;99.90;;;;;;5053746;28;20389;-79
2023/10/10 14:59:06;;;;;;;25.67;16.70;;;19.30;99.90;;;;;;5071214;28;20033;-79
2023/10/10 15:01:36;;;;;;;23.92;16.25;;;19.30;99.90;;;;;;5054700;28;20189;-79
2023/10/10 15:04:05;;;;;;;23.20;15.70;;;19.30;99.90;;;;;;5054758;28;20036;-79
2023/10/10 15:06:35;;;;;;;22.25;15.50;;;19.30;99.90;;;;;;5053796;28;20032;-79
2023/10/10 15:09:01;;;;;;;21.38;14.50;;;19.30;99.90;;;;;;5071542;28;20046;-79
2023/10/10 15:11:28;;;;;;;25.50;16.45;;;19.30;99.90;;;;;;5054366;28;20037;-79
2023/10/10 15:13:58;;;;;;;23.10;15.57;;;19.30;99.90;;;;;;5056146;28;20044;-79
2023/10/10 15:16:25;;;;;;;21.55;15.32;;;19.20;99.90;;;;;;5057022;28;20047;-79
2023/10/10 15:18:54;;;;;;;21.08;14.48;;;19.30;99.90;;;;;;5058302;28;20032;-79
2023/10/10 15:21:21;;;;;;;20.25;15.27;;;19.30;99.90;;;;;;5057997;28;20090;-79
2023/10/10 15:23:47;;;;;;;20.90;14.43;;;19.20;99.90;;;;;;5057849;28;20044;-79
2023/10/10 15:26:20;;;;;;;21.63;14.40;;;19.20;99.90;;;;;;5074917;28;20435;-80
2023/10/10 15:28:46;;;;;;;21.98;15.38;;;19.20;99.90;;;;;;5056729;28;20054;-79
2023/10/10 15:31:12;;;;;;;24.10;15.13;;;19.10;99.90;;;;;;5074758;28;20048;-79
2023/10/10 15:33:43;;;;;;;22.15;14.32;;;19.20;99.90;;;;;;5057800;28;20037;-79
2023/10/10 15:36:11;;;;;;;24.07;15.17;;;19.10;99.90;;;;;;5057951;28;20040;-79
2023/10/10 15:38:40;;;;;;;23.15;15.40;;;19.10;99.90;;;;;;5056845;28;20103;-79
2023/10/10 15:41:19;;;;;;;22.58;15.35;;;19.10;99.90;;;;;;5058199;28;20040;-79
2023/10/10 15:43:48;;;;;;;22.27;14.25;;;19.10;99.90;;;;;;5074501;28;20038;-79
2023/10/10 15:46:19;;;;;;;23.98;14.38;;;19.10;99.90;;;;;;5057413;28;20039;-79
2023/10/10 15:48:48;;;;;;;22.13;14.05;;;19.10;99.90;;;;;;5056294;28;20032;-79
2023/10/10 15:51:15;;;;;;;22.58;13.35;;;19.00;99.90;;;;;;5056074;28;20044;-80
2023/10/10 15:53:42;;;;;;;21.77;13.75;;;19.00;99.90;;;;;;5057471;28;20040;-79
2023/10/10 15:56:13;;;;;;;23.02;13.35;;;19.00;99.90;;;;;;5057182;28;20053;-79